sensor_id;sensor_type;location;lat;lon;timestamp;pressure;altitude;pressure_sealevel;temperature;humidity
63500;BME280;49654;51.142;14.924;2022-12-17T00:01:17;99468.41;;;-2.36;71.81
63500;BME280;49654;51.142;14.924;2022-12-17T00:04:02;99468.41;;;-2.06;70.27
63500;BME280;49654;51.142;14.924;2022-12-17T00:06:46;99472.06;;;-2.10;69.92
63500;BME280;49654;51.142;14.924;2022-12-17T00:09:31;99482.13;;;-2.54;70.39
63500;BME280;49654;51.142;14.924;2022-12-17T00:12:18;99493.28;;;-2.41;71.43
63500;BME280;49654;51.142;14.924;2022-12-17T00:15:03;99491.00;;;-2.15;71.39
63500;BME280;49654;51.142;14.924;2022-12-17T00:17:47;99497.63;;;-1.97;70.75
63500;BME280;49654;51.142;14.924;2022-12-17T00:20:32;99485.63;;;-1.95;69.96
63500;BME280;49654;51.142;14.924;2022-12-17T00:23:17;99500.91;;;-1.81;69.58
63500;BME280;49654;51.142;14.924;2022-12-17T00:26:01;99507.19;;;-1.72;69.43
63500;BME280;49654;51.142;14.924;2022-12-17T00:28:47;99501.16;;;-1.99;69.43
63500;BME280;49654;51.142;14.924;2022-12-17T00:31:31;99496.31;;;-2.04;69.50
63500;BME280;49654;51.142;14.924;2022-12-17T00:34:16;99467.69;;;-2.54;70.93
63500;BME280;49654;51.142;14.924;2022-12-17T00:37:12;99511.78;;;-2.23;71.41
63500;BME280;49654;51.142;14.924;2022-12-17T00:39:56;99511.50;;;-2.03;71.27
63500;BME280;49654;51.142;14.924;2022-12-17T00:42:41;99517.25;;;-2.15;70.88
63500;BME280;49654;51.142;14.924;2022-12-17T00:45:27;99520.25;;;-2.22;70.73
63500;BME280;49654;51.142;14.924;2022-12-17T00:48:11;99500.63;;;-2.20;71.52
63500;BME280;49654;51.142;14.924;2022-12-17T00:50:56;99526.88;;;-2.04;70.79
63500;BME280;49654;51.142;14.924;2022-12-17T00:53:48;99517.06;;;-2.42;70.59
63500;BME280;49654;51.142;14.924;2022-12-17T00:56:33;99520.94;;;-2.35;71.63
63500;BME280;49654;51.142;14.924;2022-12-17T00:59:18;99526.06;;;-2.36;71.27
63500;BME280;49654;51.142;14.924;2022-12-17T01:02:03;99535.28;;;-2.49;72.02
63500;BME280;49654;51.142;14.924;2022-12-17T01:04:56;99551.50;;;-2.36;72.03
63500;BME280;49654;51.142;14.924;2022-12-17T01:07:41;99538.63;;;-2.49;71.28
63500;BME280;49654;51.142;14.924;2022-12-17T01:10:25;99539.91;;;-2.56;71.11
63500;BME280;49654;51.142;14.924;2022-12-17T01:13:11;99543.09;;;-2.53;71.94
63500;BME280;49654;51.142;14.924;2022-12-17T01:16:01;99517.88;;;-2.57;71.80
63500;BME280;49654;51.142;14.924;2022-12-17T01:18:47;99528.22;;;-2.29;71.53
63500;BME280;49654;51.142;14.924;2022-12-17T01:21:31;99545.59;;;-2.05;70.22
63500;BME280;49654;51.142;14.924;2022-12-17T01:24:16;99545.53;;;-2.51;70.44
63500;BME280;49654;51.142;14.924;2022-12-17T01:27:00;99548.66;;;-2.46;71.50
63500;BME280;49654;51.142;14.924;2022-12-17T01:29:45;99548.00;;;-2.34;71.66
63500;BME280;49654;51.142;14.924;2022-12-17T01:32:29;99501.81;;;-2.42;71.03
63500;BME280;49654;51.142;14.924;2022-12-17T01:35:15;99526.47;;;-2.12;70.21
63500;BME280;49654;51.142;14.924;2022-12-17T01:38:00;99564.28;;;-2.06;69.96
63500;BME280;49654;51.142;14.924;2022-12-17T01:40:50;99570.25;;;-1.91;69.15
63500;BME280;49654;51.142;14.924;2022-12-17T01:43:36;99575.41;;;-1.77;69.58
63500;BME280;49654;51.142;14.924;2022-12-17T01:46:21;99571.22;;;-1.78;68.94
63500;BME280;49654;51.142;14.924;2022-12-17T01:49:08;99587.16;;;-1.74;69.49
63500;BME280;49654;51.142;14.924;2022-12-17T01:51:54;99552.69;;;-2.26;68.93
63500;BME280;49654;51.142;14.924;2022-12-17T01:54:40;99581.16;;;-1.89;70.24
63500;BME280;49654;51.142;14.924;2022-12-17T01:57:25;99576.56;;;-1.83;69.41
63500;BME280;49654;51.142;14.924;2022-12-17T02:00:19;99550.94;;;-2.10;69.51
63500;BME280;49654;51.142;14.924;2022-12-17T02:03:04;99590.75;;;-2.56;71.25
63500;BME280;49654;51.142;14.924;2022-12-17T02:05:56;99588.84;;;-2.37;71.97
63500;BME280;49654;51.142;14.924;2022-12-17T02:08:49;99499.16;;;-3.19;71.01
63500;BME280;49654;51.142;14.924;2022-12-17T02:11:41;99600.34;;;-2.61;72.45
63500;BME280;49654;51.142;14.924;2022-12-17T02:14:32;99601.41;;;-2.49;72.21
63500;BME280;49654;51.142;14.924;2022-12-17T02:17:23;99591.91;;;-2.30;72.14
63500;BME280;49654;51.142;14.924;2022-12-17T02:20:20;99595.88;;;-2.10;71.60
63500;BME280;49654;51.142;14.924;2022-12-17T02:23:16;99570.38;;;-2.24;70.42
63500;BME280;49654;51.142;14.924;2022-12-17T02:26:10;99596.31;;;-2.49;71.25
63500;BME280;49654;51.142;14.924;2022-12-17T02:28:59;99602.63;;;-2.41;71.83
63500;BME280;49654;51.142;14.924;2022-12-17T02:31:45;99587.63;;;-2.45;71.90
63500;BME280;49654;51.142;14.924;2022-12-17T02:34:30;99594.50;;;-2.16;71.13
63500;BME280;49654;51.142;14.924;2022-12-17T02:37:15;99581.22;;;-2.37;71.15
63500;BME280;49654;51.142;14.924;2022-12-17T02:40:00;99595.66;;;-2.21;71.55
63500;BME280;49654;51.142;14.924;2022-12-17T02:42:46;99603.72;;;-2.13;70.72
63500;BME280;49654;51.142;14.924;2022-12-17T02:45:34;99598.22;;;-2.21;71.08
63500;BME280;49654;51.142;14.924;2022-12-17T02:48:18;99587.47;;;-2.27;71.19
63500;BME280;49654;51.142;14.924;2022-12-17T02:51:04;99610.44;;;-2.28;71.38
63500;BME280;49654;51.142;14.924;2022-12-17T02:53:51;99615.47;;;-2.27;71.83
63500;BME280;49654;51.142;14.924;2022-12-17T02:56:37;99612.22;;;-2.14;71.32
63500;BME280;49654;51.142;14.924;2022-12-17T02:59:21;99611.69;;;-2.35;71.81
63500;BME280;49654;51.142;14.924;2022-12-17T03:02:07;99599.59;;;-2.63;72.47
63500;BME280;49654;51.142;14.924;2022-12-17T03:04:52;99605.16;;;-2.72;73.58
63500;BME280;49654;51.142;14.924;2022-12-17T03:07:36;99611.94;;;-2.40;73.03
63500;BME280;49654;51.142;14.924;2022-12-17T03:10:21;99625.97;;;-2.66;72.74
63500;BME280;49654;51.142;14.924;2022-12-17T03:13:05;99616.47;;;-2.62;73.85
63500;BME280;49654;51.142;14.924;2022-12-17T03:15:50;99612.09;;;-2.43;72.82
63500;BME280;49654;51.142;14.924;2022-12-17T03:18:41;99618.06;;;-2.44;72.95
63500;BME280;49654;51.142;14.924;2022-12-17T03:21:25;99622.72;;;-2.68;73.42
63500;BME280;49654;51.142;14.924;2022-12-17T03:24:10;99625.72;;;-2.44;73.43
63500;BME280;49654;51.142;14.924;2022-12-17T03:26:55;99633.00;;;-2.38;73.37
63500;BME280;49654;51.142;14.924;2022-12-17T03:29:39;99610.97;;;-2.70;73.15
63500;BME280;49654;51.142;14.924;2022-12-17T03:32:23;99631.69;;;-2.61;73.09
63500;BME280;49654;51.142;14.924;2022-12-17T03:35:24;99636.34;;;-2.69;73.46
63500;BME280;49654;51.142;14.924;2022-12-17T03:38:09;99642.25;;;-2.37;73.11
63500;BME280;49654;51.142;14.924;2022-12-17T03:40:54;99635.38;;;-2.35;72.97
63500;BME280;49654;51.142;14.924;2022-12-17T03:43:39;99617.34;;;-2.30;72.73
63500;BME280;49654;51.142;14.924;2022-12-17T03:46:23;99633.50;;;-2.15;72.17
63500;BME280;49654;51.142;14.924;2022-12-17T03:49:08;99613.47;;;-2.21;71.98
63500;BME280;49654;51.142;14.924;2022-12-17T03:51:53;99635.38;;;-2.03;71.56
63500;BME280;49654;51.142;14.924;2022-12-17T03:54:38;99642.09;;;-2.49;71.82
63500;BME280;49654;51.142;14.924;2022-12-17T03:57:22;99627.47;;;-2.78;73.21
63500;BME280;49654;51.142;14.924;2022-12-17T04:00:08;99653.69;;;-2.44;73.07
63500;BME280;49654;51.142;14.924;2022-12-17T04:02:52;99658.09;;;-2.32;73.13
63500;BME280;49654;51.142;14.924;2022-12-17T04:05:37;99651.78;;;-2.40;72.90
63500;BME280;49654;51.142;14.924;2022-12-17T04:08:23;99643.09;;;-2.52;73.27
63500;BME280;49654;51.142;14.924;2022-12-17T04:11:07;99668.34;;;-2.49;73.43
63500;BME280;49654;51.142;14.924;2022-12-17T04:13:52;99664.72;;;-2.45;73.11
63500;BME280;49654;51.142;14.924;2022-12-17T04:16:36;99668.53;;;-2.20;72.72
63500;BME280;49654;51.142;14.924;2022-12-17T04:19:21;99672.53;;;-2.32;72.79
63500;BME280;49654;51.142;14.924;2022-12-17T04:22:20;99674.84;;;-2.28;72.57
63500;BME280;49654;51.142;14.924;2022-12-17T04:25:06;99642.34;;;-2.54;72.85
63500;BME280;49654;51.142;14.924;2022-12-17T04:27:51;99679.13;;;-2.44;72.52
63500;BME280;49654;51.142;14.924;2022-12-17T04:30:36;99664.41;;;-2.55;72.97
63500;BME280;49654;51.142;14.924;2022-12-17T04:33:20;99685.16;;;-2.46;73.25
63500;BME280;49654;51.142;14.924;2022-12-17T04:36:05;99684.94;;;-2.42;73.49
63500;BME280;49654;51.142;14.924;2022-12-17T04:38:49;99683.41;;;-2.62;74.06
63500;BME280;49654;51.142;14.924;2022-12-17T04:41:35;99649.34;;;-2.75;73.75
63500;BME280;49654;51.142;14.924;2022-12-17T04:44:20;99685.88;;;-2.60;74.04
63500;BME280;49654;51.142;14.924;2022-12-17T04:47:04;99673.31;;;-2.63;74.09
63500;BME280;49654;51.142;14.924;2022-12-17T04:49:49;99698.56;;;-2.27;73.58
63500;BME280;49654;51.142;14.924;2022-12-17T04:52:33;99692.84;;;-2.31;73.34
63500;BME280;49654;51.142;14.924;2022-12-17T04:55:18;99708.69;;;-2.25;72.87
63500;BME280;49654;51.142;14.924;2022-12-17T04:58:04;99722.06;;;-2.22;73.20
63500;BME280;49654;51.142;14.924;2022-12-17T05:00:50;99723.13;;;-2.10;72.98
63500;BME280;49654;51.142;14.924;2022-12-17T05:03:35;99727.34;;;-2.09;73.19
63500;BME280;49654;51.142;14.924;2022-12-17T05:06:16;99727.56;;;-2.14;72.82
63500;BME280;49654;51.142;14.924;2022-12-17T05:09:01;99726.34;;;-2.22;73.18
63500;BME280;49654;51.142;14.924;2022-12-17T05:11:45;99727.22;;;-2.23;73.05
63500;BME280;49654;51.142;14.924;2022-12-17T05:14:31;99727.41;;;-2.27;73.23
63500;BME280;49654;51.142;14.924;2022-12-17T05:17:16;99716.94;;;-2.38;73.36
63500;BME280;49654;51.142;14.924;2022-12-17T05:20:01;99711.84;;;-2.38;73.58
63500;BME280;49654;51.142;14.924;2022-12-17T05:22:45;99728.44;;;-2.31;73.50
63500;BME280;49654;51.142;14.924;2022-12-17T05:25:30;99740.69;;;-2.21;73.13
63500;BME280;49654;51.142;14.924;2022-12-17T05:28:14;99741.19;;;-2.31;73.35
63500;BME280;49654;51.142;14.924;2022-12-17T05:31:00;99749.28;;;-2.40;73.49
63500;BME280;49654;51.142;14.924;2022-12-17T05:33:45;99748.94;;;-2.34;73.98
63500;BME280;49654;51.142;14.924;2022-12-17T05:36:29;99740.75;;;-2.39;73.54
63500;BME280;49654;51.142;14.924;2022-12-17T05:39:14;99724.13;;;-2.46;73.86
63500;BME280;49654;51.142;14.924;2022-12-17T05:41:59;99758.78;;;-2.43;73.47
63500;BME280;49654;51.142;14.924;2022-12-17T05:44:43;99756.09;;;-2.58;74.39
63500;BME280;49654;51.142;14.924;2022-12-17T05:47:29;99735.16;;;-2.63;74.54
63500;BME280;49654;51.142;14.924;2022-12-17T05:50:14;99764.22;;;-2.34;74.34
63500;BME280;49654;51.142;14.924;2022-12-17T05:53:02;99757.88;;;-2.42;73.81
63500;BME280;49654;51.142;14.924;2022-12-17T05:55:50;99765.28;;;-2.38;73.84
63500;BME280;49654;51.142;14.924;2022-12-17T05:58:35;99771.63;;;-2.29;73.59
63500;BME280;49654;51.142;14.924;2022-12-17T06:01:20;99775.97;;;-2.15;73.67
63500;BME280;49654;51.142;14.924;2022-12-17T06:04:07;99773.25;;;-2.28;73.22
63500;BME280;49654;51.142;14.924;2022-12-17T06:06:52;99786.41;;;-2.20;73.09
63500;BME280;49654;51.142;14.924;2022-12-17T06:09:37;99785.59;;;-2.20;73.27
63500;BME280;49654;51.142;14.924;2022-12-17T06:12:21;99785.63;;;-2.55;74.17
63500;BME280;49654;51.142;14.924;2022-12-17T06:15:06;99772.56;;;-2.82;74.13
63500;BME280;49654;51.142;14.924;2022-12-17T06:17:52;99774.13;;;-2.97;75.16
63500;BME280;49654;51.142;14.924;2022-12-17T06:20:37;99817.66;;;-2.68;75.54
63500;BME280;49654;51.142;14.924;2022-12-17T06:23:22;99812.72;;;-2.54;75.57
63500;BME280;49654;51.142;14.924;2022-12-17T06:26:06;99812.88;;;-2.40;75.02
63500;BME280;49654;51.142;14.924;2022-12-17T06:28:51;99799.03;;;-2.52;74.52
63500;BME280;49654;51.142;14.924;2022-12-17T06:31:35;99806.47;;;-2.14;74.26
63500;BME280;49654;51.142;14.924;2022-12-17T06:34:20;99818.81;;;-2.23;73.48
63500;BME280;49654;51.142;14.924;2022-12-17T06:37:05;99821.06;;;-2.17;74.04
63500;BME280;49654;51.142;14.924;2022-12-17T06:39:50;99812.38;;;-2.13;73.68
63500;BME280;49654;51.142;14.924;2022-12-17T06:42:34;99818.69;;;-2.38;74.01
63500;BME280;49654;51.142;14.924;2022-12-17T06:45:27;99827.50;;;-2.45;74.71
63500;BME280;49654;51.142;14.924;2022-12-17T06:48:12;99828.78;;;-2.36;74.88
63500;BME280;49654;51.142;14.924;2022-12-17T06:50:56;99834.69;;;-2.36;74.64
63500;BME280;49654;51.142;14.924;2022-12-17T06:53:42;99840.91;;;-2.41;74.82
63500;BME280;49654;51.142;14.924;2022-12-17T06:56:27;99850.34;;;-2.26;74.79
63500;BME280;49654;51.142;14.924;2022-12-17T06:59:11;99852.91;;;-2.10;74.90
63500;BME280;49654;51.142;14.924;2022-12-17T07:01:55;99847.78;;;-2.26;74.18
63500;BME280;49654;51.142;14.924;2022-12-17T07:04:40;99832.00;;;-2.33;74.98
63500;BME280;49654;51.142;14.924;2022-12-17T07:07:25;99855.16;;;-2.04;74.26
63500;BME280;49654;51.142;14.924;2022-12-17T07:10:10;99860.78;;;-2.15;74.13
63500;BME280;49654;51.142;14.924;2022-12-17T07:13:03;99848.59;;;-2.25;73.92
63500;BME280;49654;51.142;14.924;2022-12-17T07:15:47;99864.78;;;-2.27;74.37
63500;BME280;49654;51.142;14.924;2022-12-17T07:18:31;99834.69;;;-2.53;75.09
63500;BME280;49654;51.142;14.924;2022-12-17T07:21:16;99856.47;;;-2.30;74.89
63500;BME280;49654;51.142;14.924;2022-12-17T07:24:00;99871.06;;;-2.34;75.03
63500;BME280;49654;51.142;14.924;2022-12-17T07:26:46;99871.41;;;-2.24;74.93
63500;BME280;49654;51.142;14.924;2022-12-17T07:29:31;99877.19;;;-2.20;74.71
63500;BME280;49654;51.142;14.924;2022-12-17T07:32:16;99854.59;;;-2.27;74.70
63500;BME280;49654;51.142;14.924;2022-12-17T07:35:00;99883.31;;;-2.07;74.16
63500;BME280;49654;51.142;14.924;2022-12-17T07:37:45;99846.81;;;-2.41;74.12
63500;BME280;49654;51.142;14.924;2022-12-17T07:40:29;99881.06;;;-1.96;73.93
63500;BME280;49654;51.142;14.924;2022-12-17T07:43:16;99886.50;;;-1.86;73.41
63500;BME280;49654;51.142;14.924;2022-12-17T07:46:06;99896.69;;;-1.53;72.99
63500;BME280;49654;51.142;14.924;2022-12-17T07:48:50;99898.06;;;-1.47;72.20
63500;BME280;49654;51.142;14.924;2022-12-17T07:51:39;99905.25;;;-1.71;73.25
63500;BME280;49654;51.142;14.924;2022-12-17T07:54:26;99905.09;;;-1.68;72.68
63500;BME280;49654;51.142;14.924;2022-12-17T07:57:11;99910.53;;;-1.74;73.30
63500;BME280;49654;51.142;14.924;2022-12-17T08:00:02;99920.31;;;-1.67;72.90
63500;BME280;49654;51.142;14.924;2022-12-17T08:02:47;99917.16;;;-1.72;73.59
63500;BME280;49654;51.142;14.924;2022-12-17T08:05:31;99909.41;;;-1.53;72.98
63500;BME280;49654;51.142;14.924;2022-12-17T08:08:16;99892.97;;;-1.47;71.93
63500;BME280;49654;51.142;14.924;2022-12-17T08:11:00;99910.13;;;-1.67;72.16
63500;BME280;49654;51.142;14.924;2022-12-17T08:13:45;99927.69;;;-1.45;72.08
63500;BME280;49654;51.142;14.924;2022-12-17T08:16:30;99932.63;;;-1.59;73.15
63500;BME280;49654;51.142;14.924;2022-12-17T08:19:26;99923.56;;;-1.47;72.51
63500;BME280;49654;51.142;14.924;2022-12-17T08:22:11;99914.69;;;-1.40;72.11
63500;BME280;49654;51.142;14.924;2022-12-17T08:24:56;99894.28;;;-1.56;72.14
63500;BME280;49654;51.142;14.924;2022-12-17T08:27:41;99895.63;;;-1.49;72.00
63500;BME280;49654;51.142;14.924;2022-12-17T08:30:25;99945.63;;;-1.15;71.71
63500;BME280;49654;51.142;14.924;2022-12-17T08:33:26;99931.81;;;-1.11;71.12
63500;BME280;49654;51.142;14.924;2022-12-17T08:36:10;99889.00;;;-1.20;70.09
63500;BME280;49654;51.142;14.924;2022-12-17T08:38:55;99959.03;;;-1.11;70.16
63500;BME280;49654;51.142;14.924;2022-12-17T08:41:40;99948.50;;;-1.05;70.73
63500;BME280;49654;51.142;14.924;2022-12-17T08:44:25;99953.28;;;-0.99;69.82
63500;BME280;49654;51.142;14.924;2022-12-17T08:47:10;99971.03;;;-1.13;70.91
63500;BME280;49654;51.142;14.924;2022-12-17T08:49:56;99970.50;;;-1.36;71.06
63500;BME280;49654;51.142;14.924;2022-12-17T08:52:40;99951.28;;;-1.26;71.29
63500;BME280;49654;51.142;14.924;2022-12-17T08:55:25;99978.13;;;-0.87;71.33
63500;BME280;49654;51.142;14.924;2022-12-17T08:58:09;99972.03;;;-0.84;70.46
63500;BME280;49654;51.142;14.924;2022-12-17T09:00:57;99973.91;;;-0.56;70.29
63500;BME280;49654;51.142;14.924;2022-12-17T09:03:41;99977.19;;;-0.38;69.16
63500;BME280;49654;51.142;14.924;2022-12-17T09:06:27;99970.94;;;-0.64;69.54
63500;BME280;49654;51.142;14.924;2022-12-17T09:09:11;99979.94;;;-0.57;69.77
63500;BME280;49654;51.142;14.924;2022-12-17T09:11:56;99987.47;;;-0.40;69.04
63500;BME280;49654;51.142;14.924;2022-12-17T09:14:40;99992.03;;;-0.92;70.31
63500;BME280;49654;51.142;14.924;2022-12-17T09:17:25;99997.59;;;-0.86;70.15
63500;BME280;49654;51.142;14.924;2022-12-17T09:20:20;99994.25;;;-0.86;70.69
63500;BME280;49654;51.142;14.924;2022-12-17T09:23:06;99998.13;;;-0.63;70.52
63500;BME280;49654;51.142;14.924;2022-12-17T09:25:52;99977.16;;;-0.68;70.15
63500;BME280;49654;51.142;14.924;2022-12-17T09:28:37;99992.69;;;-0.57;70.24
63500;BME280;49654;51.142;14.924;2022-12-17T09:31:22;99988.91;;;-0.50;69.51
63500;BME280;49654;51.142;14.924;2022-12-17T09:34:06;100006.19;;;-0.55;69.58
63500;BME280;49654;51.142;14.924;2022-12-17T09:36:51;99997.31;;;-0.80;69.88
63500;BME280;49654;51.142;14.924;2022-12-17T09:39:37;99997.22;;;-0.94;70.44
63500;BME280;49654;51.142;14.924;2022-12-17T09:42:24;99991.69;;;-0.70;70.67
63500;BME280;49654;51.142;14.924;2022-12-17T09:45:15;100000.03;;;-0.51;70.12
63500;BME280;49654;51.142;14.924;2022-12-17T09:48:05;99999.00;;;-0.64;69.84
63500;BME280;49654;51.142;14.924;2022-12-17T09:50:53;100008.50;;;-0.66;70.52
63500;BME280;49654;51.142;14.924;2022-12-17T09:53:42;100017.31;;;-0.72;70.29
63500;BME280;49654;51.142;14.924;2022-12-17T09:56:30;100012.44;;;-0.77;70.92
63500;BME280;49654;51.142;14.924;2022-12-17T09:59:19;100023.72;;;-0.81;70.14
63500;BME280;49654;51.142;14.924;2022-12-17T10:02:11;100023.72;;;-0.81;71.01
63500;BME280;49654;51.142;14.924;2022-12-17T10:04:56;100009.38;;;-0.52;70.42
63500;BME280;49654;51.142;14.924;2022-12-17T10:07:42;100015.94;;;-0.32;69.18
63500;BME280;49654;51.142;14.924;2022-12-17T10:10:31;100025.41;;;-0.18;68.69
63500;BME280;49654;51.142;14.924;2022-12-17T10:13:19;100005.63;;;-0.14;68.33
63500;BME280;49654;51.142;14.924;2022-12-17T10:16:19;100017.84;;;-0.19;68.16
63500;BME280;49654;51.142;14.924;2022-12-17T10:19:05;99931.63;;;-0.60;69.34
63500;BME280;49654;51.142;14.924;2022-12-17T10:22:05;99993.09;;;-0.03;68.69
63500;BME280;49654;51.142;14.924;2022-12-17T10:24:50;100002.53;;;0.11;67.44
63500;BME280;49654;51.142;14.924;2022-12-17T10:27:35;100013.03;;;-0.10;66.79
63500;BME280;49654;51.142;14.924;2022-12-17T10:30:21;100045.50;;;-0.28;68.03
63500;BME280;49654;51.142;14.924;2022-12-17T10:33:06;100041.47;;;-0.32;68.39
63500;BME280;49654;51.142;14.924;2022-12-17T10:35:51;100018.50;;;-0.95;70.14
63500;BME280;49654;51.142;14.924;2022-12-17T10:38:35;100043.47;;;-0.37;68.92
63500;BME280;49654;51.142;14.924;2022-12-17T10:41:22;100039.13;;;-0.51;69.51
63500;BME280;49654;51.142;14.924;2022-12-17T10:44:28;100051.75;;;-0.65;69.90
63500;BME280;49654;51.142;14.924;2022-12-17T10:47:16;100054.72;;;-0.57;69.70
63500;BME280;49654;51.142;14.924;2022-12-17T10:50:03;100059.44;;;-0.49;69.78
63500;BME280;49654;51.142;14.924;2022-12-17T10:52:49;100060.56;;;-0.39;70.03
63500;BME280;49654;51.142;14.924;2022-12-17T10:55:34;100045.91;;;-0.19;68.67
63500;BME280;49654;51.142;14.924;2022-12-17T10:58:20;100051.00;;;-0.04;68.39
63500;BME280;49654;51.142;14.924;2022-12-17T11:01:10;100076.97;;;-0.11;67.19
63500;BME280;49654;51.142;14.924;2022-12-17T11:03:57;100077.75;;;0.05;67.79
63500;BME280;49654;51.142;14.924;2022-12-17T11:06:44;100043.72;;;-0.26;67.53
63500;BME280;49654;51.142;14.924;2022-12-17T11:09:35;100072.59;;;0.21;68.02
63500;BME280;49654;51.142;14.924;2022-12-17T11:12:24;100068.97;;;0.25;66.49
63500;BME280;49654;51.142;14.924;2022-12-17T11:15:17;100084.44;;;0.38;66.56
63500;BME280;49654;51.142;14.924;2022-12-17T11:18:05;100073.66;;;-0.13;67.52
63500;BME280;49654;51.142;14.924;2022-12-17T11:20:57;100092.03;;;0.39;67.79
63500;BME280;49654;51.142;14.924;2022-12-17T11:23:47;100088.66;;;0.39;66.71
63500;BME280;49654;51.142;14.924;2022-12-17T11:26:36;100069.31;;;0.49;67.24
63500;BME280;49654;51.142;14.924;2022-12-17T11:29:21;100087.34;;;0.32;66.81
63500;BME280;49654;51.142;14.924;2022-12-17T11:32:19;100090.59;;;0.04;66.88
63500;BME280;49654;51.142;14.924;2022-12-17T11:35:11;100074.16;;;-0.22;68.01
63500;BME280;49654;51.142;14.924;2022-12-17T11:38:09;100085.78;;;-0.33;68.25
63500;BME280;49654;51.142;14.924;2022-12-17T11:40:54;100092.53;;;-0.63;68.98
63500;BME280;49654;51.142;14.924;2022-12-17T11:43:46;100102.41;;;-0.41;68.92
63500;BME280;49654;51.142;14.924;2022-12-17T11:46:38;100109.66;;;-0.34;69.67
63500;BME280;49654;51.142;14.924;2022-12-17T11:49:31;100108.41;;;-0.11;69.22
63500;BME280;49654;51.142;14.924;2022-12-17T11:52:26;100111.69;;;-0.09;68.72
63500;BME280;49654;51.142;14.924;2022-12-17T11:55:16;100118.22;;;-0.03;68.89
63500;BME280;49654;51.142;14.924;2022-12-17T11:58:10;100112.69;;;0.05;69.20
63500;BME280;49654;51.142;14.924;2022-12-17T12:01:03;100123.09;;;0.32;67.90
63500;BME280;49654;51.142;14.924;2022-12-17T12:04:04;100117.94;;;0.17;67.73
63500;BME280;49654;51.142;14.924;2022-12-17T12:07:00;100127.50;;;0.14;67.41
63500;BME280;49654;51.142;14.924;2022-12-17T12:09:53;100111.63;;;-0.39;68.13
63500;BME280;49654;51.142;14.924;2022-12-17T12:12:51;100118.13;;;-0.17;68.36
63500;BME280;49654;51.142;14.924;2022-12-17T12:15:44;100114.16;;;-0.39;69.35
63500;BME280;49654;51.142;14.924;2022-12-17T12:18:36;100120.34;;;-0.11;69.38
63500;BME280;49654;51.142;14.924;2022-12-17T12:21:36;100114.81;;;0.12;67.88
63500;BME280;49654;51.142;14.924;2022-12-17T12:24:43;100114.91;;;-0.05;68.22
63500;BME280;49654;51.142;14.924;2022-12-17T12:27:52;100119.69;;;-0.31;68.92
63500;BME280;49654;51.142;14.924;2022-12-17T12:30:44;100126.34;;;-0.44;69.33
63500;BME280;49654;51.142;14.924;2022-12-17T12:33:43;100137.06;;;0.10;68.67
63500;BME280;49654;51.142;14.924;2022-12-17T12:36:29;100124.28;;;-0.21;67.17
63500;BME280;49654;51.142;14.924;2022-12-17T12:39:18;100131.28;;;-0.57;68.98
63500;BME280;49654;51.142;14.924;2022-12-17T12:42:23;100123.28;;;-0.66;69.52
63500;BME280;49654;51.142;14.924;2022-12-17T12:48:38;100138.22;;;-0.27;69.36
63500;BME280;49654;51.142;14.924;2022-12-17T12:51:27;100145.16;;;-0.29;69.46
63500;BME280;49654;51.142;14.924;2022-12-17T12:54:22;100143.53;;;-0.47;68.77
63500;BME280;49654;51.142;14.924;2022-12-17T12:57:25;100138.69;;;-0.52;70.34
63500;BME280;49654;51.142;14.924;2022-12-17T13:00:24;100146.16;;;-0.65;69.96
63500;BME280;49654;51.142;14.924;2022-12-17T13:03:18;100139.94;;;-0.59;69.92
63500;BME280;49654;51.142;14.924;2022-12-17T13:06:04;100124.53;;;-0.58;70.19
63500;BME280;49654;51.142;14.924;2022-12-17T13:08:31;100149.00;;;-0.22;69.42
63500;BME280;49654;51.142;14.924;2022-12-17T13:11:09;100141.50;;;-0.09;68.79
63500;BME280;49654;51.142;14.924;2022-12-17T13:13:40;100126.75;;;-0.52;69.11
63500;BME280;49654;51.142;14.924;2022-12-17T13:16:30;100158.97;;;-0.17;68.95
63500;BME280;49654;51.142;14.924;2022-12-17T13:19:03;100156.50;;;0.13;70.83
63500;BME280;49654;51.142;14.924;2022-12-17T13:21:30;100161.72;;;0.57;73.56
63500;BME280;49654;51.142;14.924;2022-12-17T13:24:09;100158.16;;;0.14;69.18
63500;BME280;49654;51.142;14.924;2022-12-17T13:26:42;100168.22;;;-0.15;69.06
63500;BME280;49654;51.142;14.924;2022-12-17T13:29:18;100166.63;;;-0.17;69.23
63500;BME280;49654;51.142;14.924;2022-12-17T13:31:57;100166.59;;;0.00;68.62
63500;BME280;49654;51.142;14.924;2022-12-17T13:34:37;100170.84;;;0.15;68.75
63500;BME280;49654;51.142;14.924;2022-12-17T13:37:14;100178.75;;;0.11;68.40
63500;BME280;49654;51.142;14.924;2022-12-17T13:39:48;100182.22;;;-0.06;68.50
63500;BME280;49654;51.142;14.924;2022-12-17T13:42:23;100182.56;;;-0.12;69.28
63500;BME280;49654;51.142;14.924;2022-12-17T13:44:53;100173.09;;;-0.43;69.55
63500;BME280;49654;51.142;14.924;2022-12-17T13:47:25;100193.88;;;-0.18;69.25
63500;BME280;49654;51.142;14.924;2022-12-17T13:49:54;100185.03;;;-0.44;70.42
63500;BME280;49654;51.142;14.924;2022-12-17T13:52:23;100194.03;;;-0.37;69.69
63500;BME280;49654;51.142;14.924;2022-12-17T13:54:51;100197.81;;;-0.44;69.62
63500;BME280;49654;51.142;14.924;2022-12-17T13:57:20;100204.28;;;-0.05;70.08
63500;BME280;49654;51.142;14.924;2022-12-17T13:59:49;100170.16;;;-0.36;69.40
63500;BME280;49654;51.142;14.924;2022-12-17T14:02:24;100206.53;;;-0.48;69.16
63500;BME280;49654;51.142;14.924;2022-12-17T14:04:52;100207.59;;;-0.69;69.99
63500;BME280;49654;51.142;14.924;2022-12-17T14:07:19;100203.59;;;-0.91;71.35
63500;BME280;49654;51.142;14.924;2022-12-17T14:09:47;100227.59;;;-0.95;71.77
63500;BME280;49654;51.142;14.924;2022-12-17T14:12:16;100220.69;;;-0.93;72.28
63500;BME280;49654;51.142;14.924;2022-12-17T14:14:52;100206.13;;;-0.91;71.54
63500;BME280;49654;51.142;14.924;2022-12-17T14:17:24;100228.22;;;-0.90;71.99
63500;BME280;49654;51.142;14.924;2022-12-17T14:19:56;100247.75;;;-0.90;71.85
63500;BME280;49654;51.142;14.924;2022-12-17T14:22:30;100243.63;;;-0.76;71.63
63500;BME280;49654;51.142;14.924;2022-12-17T14:24:58;100211.91;;;-1.39;72.64
63500;BME280;49654;51.142;14.924;2022-12-17T14:27:30;100248.75;;;-1.10;72.59